Time;durP1;ratioP1;P1;durP2;ratioP2;P2;SDS_P1;SDS_P2;PMS_P1;PMS_P2;Temp;Humidity;BMP_temperature;BMP_pressure;BME280_temperature;BME280_humidity;BME280_pressure;Samples;Min_cycle;Max_cycle;Signal;HPM_P1;HPM_P2
2022/04/27 00:00:03;;;;;;;6.37;4.93;;;7.70;99.90;;;;;;5059420;28;20258;-78
2022/04/27 00:02:30;;;;;;;7.73;5.27;;;7.70;99.90;;;;;;5077607;28;20260;-77
2022/04/27 00:04:57;;;;;;;7.60;5.30;;;7.70;99.90;;;;;;5077911;28;20194;-77
2022/04/27 00:07:22;;;;;;;7.20;4.80;;;7.60;99.90;;;;;;5059166;28;20181;-74
2022/04/27 00:09:48;;;;;;;7.47;4.87;;;7.60;99.90;;;;;;5078290;28;20249;-77
2022/04/27 00:12:13;;;;;;;9.27;5.30;;;7.50;99.90;;;;;;5079001;28;20191;-77
2022/04/27 00:14:39;;;;;;;8.17;5.40;;;7.50;99.90;;;;;;5061295;28;20647;-77
2022/04/27 00:17:05;;;;;;;7.73;5.30;;;7.50;99.90;;;;;;5060097;28;20182;-78
2022/04/27 00:19:31;;;;;;;7.57;5.07;;;7.50;99.90;;;;;;5077538;28;20544;-78
2022/04/27 00:21:56;;;;;;;7.33;5.23;;;7.50;99.90;;;;;;5059687;28;20195;-78
2022/04/27 00:24:22;;;;;;;10.33;6.07;;;7.40;99.90;;;;;;5078077;28;20198;-78
2022/04/27 00:26:48;;;;;;;8.73;5.10;;;7.30;99.90;;;;;;5059434;28;20602;-78
2022/04/27 00:29:13;;;;;;;8.33;5.10;;;7.30;99.90;;;;;;5078000;28;20225;-79
2022/04/27 00:31:39;;;;;;;12.27;5.53;;;7.30;99.90;;;;;;5077690;28;20184;-78
2022/04/27 00:34:05;;;;;;;7.00;5.23;;;7.40;99.90;;;;;;5077716;28;20213;-78
2022/04/27 00:36:31;;;;;;;7.93;5.53;;;7.30;99.90;;;;;;5060210;28;20640;-78
2022/04/27 00:39:00;;;;;;;8.20;5.07;;;7.30;99.90;;;;;;5078199;28;20165;-78
2022/04/27 00:41:25;;;;;;;9.50;5.80;;;7.30;99.90;;;;;;5077706;28;20738;-78
2022/04/27 00:43:51;;;;;;;11.03;5.27;;;7.20;99.90;;;;;;5078019;28;20232;-78
2022/04/27 00:46:16;;;;;;;11.33;5.50;;;7.30;99.90;;;;;;5064525;28;20171;-76
2022/04/27 00:48:42;;;;;;;13.63;6.00;;;7.20;99.90;;;;;;5091993;28;20195;-76
2022/04/27 00:51:15;;;;;;;8.50;5.13;;;7.20;99.90;;;;;;5087825;28;20169;-77
2022/04/27 00:53:41;;;;;;;6.93;5.60;;;7.20;99.90;;;;;;5076741;28;20277;-78
2022/04/27 00:56:07;;;;;;;11.90;5.37;;;7.20;99.90;;;;;;5076325;28;20202;-77
2022/04/27 00:58:33;;;;;;;6.93;5.10;;;7.20;99.90;;;;;;5076405;28;20171;-77
2022/04/27 01:00:59;;;;;;;6.73;5.33;;;7.30;99.90;;;;;;5076434;28;20174;-78
2022/04/27 01:03:24;;;;;;;7.17;4.80;;;7.20;99.90;;;;;;5076257;28;20206;-77
2022/04/27 01:05:51;;;;;;;6.40;5.17;;;7.20;99.90;;;;;;5076189;28;20657;-77
2022/04/27 01:08:18;;;;;;;10.23;5.70;;;7.20;99.90;;;;;;5057984;28;20170;-78
2022/04/27 01:10:46;;;;;;;8.93;5.23;;;7.20;99.90;;;;;;5076138;28;20510;-76
2022/04/27 01:13:12;;;;;;;7.60;6.07;;;7.20;99.90;;;;;;5075720;28;20195;-77
2022/04/27 01:15:38;;;;;;;7.93;6.27;;;7.20;99.90;;;;;;5075698;28;20170;-78
2022/04/27 01:18:04;;;;;;;10.50;6.30;;;7.30;99.90;;;;;;5057707;28;20190;-78
2022/04/27 01:20:38;;;;;;;9.50;6.03;;;7.30;99.90;;;;;;5075546;28;20235;-76
2022/04/27 01:23:05;;;;;;;10.17;5.70;;;7.30;99.90;;;;;;5057160;28;20301;-77
2022/04/27 01:25:51;;;;;;;6.87;5.63;;;7.30;99.90;;;;;;5075350;28;20159;-75
2022/04/27 01:28:18;;;;;;;8.83;5.77;;;7.30;99.90;;;;;;5057509;28;20551;-78
2022/04/27 01:30:44;;;;;;;9.40;6.40;;;7.30;99.90;;;;;;5075345;28;20213;-76
2022/04/27 01:33:10;;;;;;;9.80;6.30;;;7.30;99.90;;;;;;5057470;28;20214;-77
2022/04/27 01:35:36;;;;;;;11.03;6.47;;;7.30;99.90;;;;;;5057569;28;20206;-77
2022/04/27 01:38:02;;;;;;;7.90;5.97;;;7.30;99.90;;;;;;5075584;28;20525;-77
2022/04/27 01:40:28;;;;;;;10.80;7.83;;;7.30;99.90;;;;;;5057394;28;20265;-77
2022/04/27 01:42:54;;;;;;;10.27;6.70;;;7.40;99.90;;;;;;5075152;28;20222;-77
2022/04/27 01:45:20;;;;;;;13.80;6.80;;;7.40;99.90;;;;;;5075280;28;20174;-77
2022/04/27 01:47:45;;;;;;;12.37;6.53;;;7.40;99.90;;;;;;5074958;28;20171;-77
2022/04/27 01:50:11;;;;;;;8.53;6.63;;;7.40;99.90;;;;;;5075606;28;20174;-78
2022/04/27 01:55:20;;;;;;;10.33;6.37;;;7.50;99.90;;;;;;5075547;28;20566;-77
2022/04/27 01:57:46;;;;;;;6.83;5.70;;;7.50;99.90;;;;;;5075316;28;20171;-77
2022/04/27 02:00:13;;;;;;;11.07;6.70;;;7.50;99.90;;;;;;5075502;28;20637;-78
2022/04/27 02:02:38;;;;;;;10.00;6.73;;;7.50;99.90;;;;;;5075186;28;20198;-77
2022/04/27 02:05:04;;;;;;;8.83;5.77;;;7.50;99.90;;;;;;5056996;28;20178;-77
2022/04/27 02:07:30;;;;;;;10.70;6.50;;;7.50;99.90;;;;;;5075085;28;20171;-77
2022/04/27 02:09:56;;;;;;;9.20;5.80;;;7.50;99.90;;;;;;5056716;28;20175;-78
2022/04/27 02:12:21;;;;;;;11.67;6.67;;;7.40;99.90;;;;;;5057178;28;20199;-78
2022/04/27 02:14:47;;;;;;;11.00;6.40;;;7.40;99.90;;;;;;5075670;28;20221;-77
2022/04/27 02:17:12;;;;;;;9.27;6.57;;;7.40;99.90;;;;;;5074468;28;20250;-77
2022/04/27 02:19:38;;;;;;;11.10;7.23;;;7.40;99.90;;;;;;5075460;28;20206;-78
2022/04/27 02:22:04;;;;;;;8.33;6.57;;;7.40;99.90;;;;;;5074554;28;20202;-78
2022/04/27 02:24:30;;;;;;;9.00;6.30;;;7.30;99.90;;;;;;5056857;28;20690;-77
2022/04/27 02:26:55;;;;;;;9.77;6.17;;;7.30;99.90;;;;;;5074818;28;20171;-78
2022/04/27 02:29:24;;;;;;;10.10;6.37;;;7.30;99.90;;;;;;5056653;28;20643;-78
2022/04/27 02:31:51;;;;;;;8.57;6.07;;;7.20;99.90;;;;;;5056576;28;20182;-78
2022/04/27 02:34:16;;;;;;;10.97;6.60;;;7.20;99.90;;;;;;5074182;28;20295;-77
2022/04/27 02:36:42;;;;;;;9.40;7.20;;;7.10;99.90;;;;;;5074456;28;20179;-78
2022/04/27 02:39:08;;;;;;;10.60;6.90;;;7.10;99.90;;;;;;5074518;28;20174;-78
2022/04/27 02:41:33;;;;;;;11.50;6.77;;;7.10;99.90;;;;;;5074798;28;20376;-77
2022/04/27 02:43:59;;;;;;;8.47;6.40;;;7.10;99.90;;;;;;5074682;28;20269;-78
2022/04/27 02:46:24;;;;;;;11.17;6.77;;;7.10;99.90;;;;;;5075025;28;20213;-78
2022/04/27 02:51:49;;;;;;;12.60;7.03;;;7.00;99.90;;;;;;5075546;28;20168;-78
2022/04/27 02:54:16;;;;;;;8.27;6.87;;;6.90;99.90;;;;;;5075290;28;20222;-78
2022/04/27 02:56:42;;;;;;;8.77;7.00;;;6.80;99.90;;;;;;5075569;28;20178;-78
2022/04/27 02:59:08;;;;;;;13.17;7.47;;;6.80;99.90;;;;;;5078005;28;20169;-77
2022/04/27 03:01:34;;;;;;;10.70;6.73;;;6.80;99.90;;;;;;5074774;28;20258;-78
2022/04/27 03:04:00;;;;;;;11.00;7.30;;;6.70;99.90;;;;;;5074090;28;20675;-78
2022/04/27 03:06:25;;;;;;;11.53;7.60;;;6.70;99.90;;;;;;5074124;28;20174;-77
2022/04/27 03:08:51;;;;;;;9.47;7.27;;;6.60;99.90;;;;;;5074119;28;20166;-78
2022/04/27 03:11:16;;;;;;;10.80;7.50;;;6.60;99.90;;;;;;5073968;28;20637;-78
2022/04/27 03:13:42;;;;;;;11.37;7.47;;;6.50;99.90;;;;;;5056117;28;20187;-78
2022/04/27 03:16:07;;;;;;;10.80;8.03;;;6.50;99.90;;;;;;5074147;28;20220;-77
2022/04/27 03:18:33;;;;;;;13.07;7.87;;;6.50;99.90;;;;;;5056194;28;20179;-77
2022/04/27 03:20:58;;;;;;;14.13;7.50;;;6.50;99.90;;;;;;5056082;28;20636;-78
2022/04/27 03:23:24;;;;;;;8.20;7.40;;;6.50;99.90;;;;;;5073909;28;20221;-77
2022/04/27 03:25:49;;;;;;;15.80;7.60;;;6.40;99.90;;;;;;5074628;28;20183;-77
2022/04/27 03:28:16;;;;;;;12.90;7.33;;;6.40;99.90;;;;;;5074161;28;20171;-78
2022/04/27 03:30:41;;;;;;;9.20;7.60;;;6.30;99.90;;;;;;5056351;28;20245;-78
2022/04/27 03:33:07;;;;;;;12.77;7.50;;;6.30;99.90;;;;;;5074324;28;20672;-78
2022/04/27 03:35:33;;;;;;;9.13;7.00;;;6.20;99.90;;;;;;5074214;28;20185;-78
2022/04/27 03:37:58;;;;;;;10.60;7.87;;;6.20;99.90;;;;;;5056417;28;20210;-78
2022/04/27 03:40:27;;;;;;;10.77;7.13;;;6.20;99.90;;;;;;5074600;28;20640;-77
2022/04/27 03:42:53;;;;;;;12.97;8.33;;;6.20;99.90;;;;;;5073738;28;20583;-77
2022/04/27 03:45:20;;;;;;;12.57;8.00;;;6.10;99.90;;;;;;5056055;28;20181;-78
2022/04/27 03:47:47;;;;;;;10.97;8.50;;;6.10;99.90;;;;;;5073445;28;20163;-77
2022/04/27 03:50:12;;;;;;;9.87;7.63;;;6.10;99.90;;;;;;5074448;28;20170;-77
2022/04/27 03:52:38;;;;;;;10.53;8.40;;;6.00;99.90;;;;;;5073793;28;20640;-79
2022/04/27 03:55:04;;;;;;;15.80;8.30;;;6.00;99.90;;;;;;5056520;28;20182;-77
2022/04/27 03:57:30;;;;;;;14.77;8.93;;;6.00;99.90;;;;;;5076298;28;20213;-77
2022/04/27 03:59:56;;;;;;;10.20;8.77;;;5.90;99.90;;;;;;5085217;28;20179;-76
2022/04/27 04:02:21;;;;;;;11.97;8.10;;;5.90;99.90;;;;;;5067961;28;20206;-77
2022/04/27 04:04:47;;;;;;;9.50;7.50;;;5.80;99.90;;;;;;5076014;28;20182;-78
2022/04/27 04:07:13;;;;;;;12.17;8.70;;;5.90;99.90;;;;;;5073548;28;20213;-78
2022/04/27 04:09:39;;;;;;;11.23;8.07;;;5.80;99.90;;;;;;5073655;28;20214;-78
2022/04/27 04:12:06;;;;;;;10.67;8.20;;;5.80;99.90;;;;;;5073237;28;20197;-76
2022/04/27 04:14:32;;;;;;;15.83;8.03;;;5.80;99.90;;;;;;5055554;28;20551;-78
2022/04/27 04:16:58;;;;;;;12.27;8.57;;;5.80;99.90;;;;;;5073568;28;20179;-77
2022/04/27 04:19:23;;;;;;;15.10;9.30;;;5.80;99.90;;;;;;5055439;28;20202;-77
2022/04/27 04:21:49;;;;;;;12.97;9.13;;;5.80;99.90;;;;;;5055389;28;20206;-79
2022/04/27 04:24:14;;;;;;;14.07;9.00;;;5.80;99.90;;;;;;5073799;28;20565;-77
2022/04/27 04:29:24;;;;;;;10.87;9.17;;;5.80;99.90;;;;;;5073413;28;20170;-77
2022/04/27 04:31:50;;;;;;;11.93;9.33;;;5.70;99.90;;;;;;5073813;28;20175;-77
2022/04/27 04:34:15;;;;;;;13.87;9.80;;;5.70;99.90;;;;;;5055023;22;20229;-74
2022/04/27 04:36:41;;;;;;;12.20;8.87;;;5.70;99.90;;;;;;4990134;28;20198;-73
2022/04/27 04:39:07;;;;;;;14.63;10.20;;;5.70;99.90;;;;;;4990345;28;20205;-74
2022/04/27 04:41:32;;;;;;;14.00;9.87;;;5.80;99.90;;;;;;4993287;28;20204;-74
2022/04/27 04:43:58;;;;;;;17.20;9.53;;;5.70;99.90;;;;;;4993369;28;20671;-73
2022/04/27 04:46:24;;;;;;;10.03;9.03;;;5.70;99.90;;;;;;4993272;28;20174;-73
2022/04/27 04:48:50;;;;;;;13.00;9.93;;;5.70;99.90;;;;;;4992077;28;20575;-73
2022/04/27 04:51:15;;;;;;;11.13;8.67;;;5.70;99.90;;;;;;4993516;28;20181;-73
2022/04/27 04:53:41;;;;;;;11.60;8.97;;;5.60;99.90;;;;;;4993463;28;20261;-74
2022/04/27 04:56:06;;;;;;;12.10;9.23;;;5.70;99.90;;;;;;4993364;28;20204;-73
2022/04/27 04:58:32;;;;;;;14.43;10.03;;;5.70;99.90;;;;;;4993718;28;20209;-74
2022/04/27 05:00:58;;;;;;;15.03;9.93;;;5.70;99.90;;;;;;4993127;28;20181;-74
2022/04/27 05:03:24;;;;;;;12.13;9.30;;;5.70;99.90;;;;;;4992967;28;20193;-74
2022/04/27 05:05:50;;;;;;;15.00;10.40;;;5.70;99.90;;;;;;4993074;28;20174;-74
2022/04/27 05:08:15;;;;;;;15.07;10.03;;;5.70;99.90;;;;;;4992944;28;20181;-74
2022/04/27 05:10:41;;;;;;;15.67;10.90;;;5.70;99.90;;;;;;4992936;28;20182;-74
2022/04/27 05:13:06;;;;;;;12.77;10.37;;;5.70;99.90;;;;;;4991631;28;20177;-73
2022/04/27 05:15:32;;;;;;;14.00;9.63;;;5.80;99.90;;;;;;4992841;28;20196;-73
2022/04/27 05:17:57;;;;;;;13.60;10.40;;;5.80;99.90;;;;;;4991564;28;20245;-74
2022/04/27 05:20:23;;;;;;;16.30;11.30;;;5.80;99.90;;;;;;4992709;28;20197;-74
2022/04/27 05:22:48;;;;;;;12.53;10.03;;;5.80;99.90;;;;;;4992863;28;20201;-74
2022/04/27 05:25:14;;;;;;;14.67;10.67;;;5.80;99.90;;;;;;4991368;28;20191;-73
2022/04/27 05:27:39;;;;;;;14.63;10.70;;;5.90;99.90;;;;;;4991435;28;20174;-73
2022/04/27 05:32:51;;;;;;;18.00;10.70;;;5.90;99.90;;;;;;4992895;28;20188;-73
2022/04/27 05:35:17;;;;;;;13.03;10.90;;;6.00;99.90;;;;;;4992433;28;20209;-73
2022/04/27 05:37:43;;;;;;;15.63;10.73;;;6.00;99.90;;;;;;4992734;28;20178;-72
2022/04/27 05:40:11;;;;;;;15.50;11.83;;;6.00;99.90;;;;;;4991326;28;20265;-71
2022/04/27 05:42:36;;;;;;;14.23;11.73;;;6.00;99.90;;;;;;4992395;28;20258;-73
2022/04/27 05:45:07;;;;;;;16.93;11.37;;;6.00;99.90;;;;;;4991014;28;20190;-73
2022/04/27 05:47:33;;;;;;;16.87;11.23;;;6.10;99.90;;;;;;4992383;28;20146;-72
2022/04/27 05:49:59;;;;;;;17.90;11.90;;;6.10;99.90;;;;;;4992312;28;20174;-75
2022/04/27 05:52:25;;;;;;;20.67;12.63;;;6.20;99.90;;;;;;4991139;28;20670;-73
2022/04/27 05:54:51;;;;;;;20.53;12.77;;;6.20;99.90;;;;;;4991032;28;20219;-73
2022/04/27 05:57:17;;;;;;;16.03;12.47;;;6.30;99.90;;;;;;4992299;28;20248;-73
2022/04/27 05:59:43;;;;;;;21.37;12.30;;;6.30;99.90;;;;;;4992408;28;20252;-73
2022/04/27 06:02:09;;;;;;;18.40;12.13;;;6.40;99.90;;;;;;4992090;28;20197;-73
2022/04/27 06:04:35;;;;;;;18.93;13.83;;;6.50;99.90;;;;;;4992379;28;20214;-71
2022/04/27 06:07:00;;;;;;;18.00;14.30;;;6.50;99.90;;;;;;4990920;28;20661;-72
2022/04/27 06:09:26;;;;;;;21.67;13.07;;;6.60;99.90;;;;;;4991966;28;20208;-72
2022/04/27 06:11:51;;;;;;;17.43;12.93;;;6.70;99.90;;;;;;4991912;28;20539;-71
2022/04/27 06:14:17;;;;;;;17.93;13.03;;;6.70;99.90;;;;;;4991810;28;20190;-72
2022/04/27 06:16:43;;;;;;;23.57;13.23;;;6.80;99.90;;;;;;4992194;28;20174;-71
2022/04/27 06:19:09;;;;;;;19.43;12.70;;;6.90;99.90;;;;;;4991844;28;20176;-72
2022/04/27 06:21:35;;;;;;;16.13;12.93;;;6.90;99.90;;;;;;4991598;28;20295;-72
2022/04/27 06:24:01;;;;;;;14.17;11.60;;;7.00;99.90;;;;;;4991829;28;20676;-71
2022/04/27 06:26:27;;;;;;;14.57;12.60;;;7.10;99.90;;;;;;4991678;28;20176;-71
2022/04/27 06:28:53;;;;;;;17.83;12.00;;;7.20;99.90;;;;;;4992260;28;20174;-72
2022/04/27 06:31:19;;;;;;;14.33;11.30;;;7.30;99.90;;;;;;4991617;28;20188;-71
2022/04/27 06:33:45;;;;;;;18.37;11.90;;;7.30;99.90;;;;;;4991436;28;20208;-71
2022/04/27 06:36:11;;;;;;;19.67;10.50;;;7.50;99.90;;;;;;4991775;28;20163;-71
2022/04/27 06:38:37;;;;;;;13.57;10.80;;;7.50;99.90;;;;;;4990253;28;20273;-71
2022/04/27 06:41:03;;;;;;;12.80;9.70;;;7.70;99.90;;;;;;4991513;28;20212;-72
2022/04/27 06:43:28;;;;;;;15.77;9.30;;;7.70;99.90;;;;;;4990158;28;20206;-72
2022/04/27 06:45:54;;;;;;;17.40;9.53;;;7.80;99.90;;;;;;4991512;28;20180;-72
2022/04/27 06:48:19;;;;;;;14.80;9.57;;;7.90;99.90;;;;;;4990274;28;20188;-72
2022/04/27 06:50:45;;;;;;;13.67;9.00;;;8.00;99.90;;;;;;4991281;28;20180;-71
2022/04/27 06:53:11;;;;;;;11.63;8.87;;;8.00;99.90;;;;;;4991368;28;20189;-72
2022/04/27 06:55:37;;;;;;;12.57;8.47;;;8.10;99.90;;;;;;4991348;28;20197;-71
2022/04/27 06:58:03;;;;;;;13.47;8.43;;;8.30;1.00;;;;;;4991638;28;20698;-72
2022/04/27 07:00:28;;;;;;;12.43;7.97;;;8.40;1.00;;;;;;4991284;28;20263;-72
2022/04/27 07:02:54;;;;;;;9.93;7.80;;;8.50;1.00;;;;;;4989547;28;20617;-74
2022/04/27 07:05:21;;;;;;;12.63;7.60;;;8.60;1.00;;;;;;4991161;28;20190;-74
2022/04/27 07:07:47;;;;;;;15.23;7.93;;;8.60;1.00;;;;;;4991518;28;20176;-74
2022/04/27 07:10:14;;;;;;;12.67;7.37;;;8.70;1.00;;;;;;4989854;28;20176;-75
2022/04/27 07:12:42;;;;;;;12.93;7.20;;;8.80;1.00;;;;;;4991087;28;20223;-75
2022/04/27 07:15:08;;;;;;;16.03;7.30;;;8.80;1.00;;;;;;4990956;28;20197;-74
2022/04/27 07:17:34;;;;;;;9.77;6.33;;;8.90;1.00;;;;;;4990938;28;20181;-74
2022/04/27 07:19:59;;;;;;;10.13;6.47;;;9.00;1.00;;;;;;4990684;28;20174;-76
2022/04/27 07:22:25;;;;;;;9.90;6.90;;;9.10;1.00;;;;;;4990151;28;20197;-74
2022/04/27 07:24:50;;;;;;;11.23;7.07;;;9.10;99.90;;;;;;4990975;28;20252;-75
2022/04/27 07:27:17;;;;;;;7.73;6.03;;;9.20;1.00;;;;;;4990729;28;20183;-76
2022/04/27 07:29:42;;;;;;;9.33;6.27;;;9.30;99.90;;;;;;4981129;28;20248;-74
2022/04/27 07:32:08;;;;;;;12.97;6.23;;;9.30;1.00;;;;;;4981108;28;20205;-76
2022/04/27 07:34:33;;;;;;;11.47;6.10;;;9.40;1.00;;;;;;4979400;28;20289;-76
2022/04/27 07:37:01;;;;;;;9.03;5.30;;;9.60;1.00;;;;;;4981481;28;20185;-76
2022/04/27 07:39:27;;;;;;;9.70;5.23;;;9.60;1.00;;;;;;4983580;28;20246;-75
2022/04/27 07:41:53;;;;;;;7.70;4.57;;;9.70;1.00;;;;;;4991067;28;20203;-75
2022/04/27 07:44:18;;;;;;;7.93;5.00;;;9.80;1.00;;;;;;4990629;28;20201;-75
2022/04/27 07:46:47;;;;;;;10.30;5.50;;;9.90;99.90;;;;;;4990717;28;20644;-75
2022/04/27 07:49:19;;;;;;;6.13;5.13;;;9.90;1.00;;;;;;4989439;28;20178;-75
2022/04/27 07:51:48;;;;;;;9.77;5.63;;;9.90;1.00;;;;;;4989433;28;20196;-75
2022/04/27 07:54:13;;;;;;;9.87;5.93;;;10.00;1.00;;;;;;4990734;28;20197;-75
2022/04/27 07:56:39;;;;;;;8.73;5.30;;;10.10;99.90;;;;;;4990657;28;20187;-75
2022/04/27 07:59:05;;;;;;;9.93;4.30;;;10.20;1.00;;;;;;4990620;28;20188;-75
2022/04/27 08:05:27;;;;;;;7.90;4.20;;;10.60;1.00;;;;;;4990479;28;20329;-75
2022/04/27 08:07:53;;;;;;;7.60;3.77;;;10.60;1.00;;;;;;4989106;28;20257;-75
2022/04/27 08:10:20;;;;;;;7.13;3.27;;;10.70;1.00;;;;;;4988518;28;20596;-76
2022/04/27 08:12:48;;;;;;;5.90;3.40;;;10.80;1.00;;;;;;4990693;28;20174;-75
2022/04/27 08:18:36;;;;;;;7.67;3.83;;;10.90;1.00;;;;;;4993783;28;20161;-74
2022/04/27 08:21:15;;;;;;;4.77;3.30;;;10.90;1.00;;;;;;4993699;28;20205;-75
2022/04/27 08:23:42;;;;;;;8.40;3.80;;;11.00;1.00;;;;;;4993905;28;20220;-74
2022/04/27 08:26:10;;;;;;;6.07;3.63;;;11.00;99.90;;;;;;4993773;28;20699;-75
2022/04/27 08:28:37;;;;;;;7.03;3.63;;;11.10;1.00;;;;;;4992363;28;20228;-74
2022/04/27 08:31:03;;;;;;;11.43;3.57;;;11.10;99.90;;;;;;4992282;28;20176;-75
2022/04/27 08:33:30;;;;;;;7.97;3.87;;;11.20;99.90;;;;;;4992105;28;20526;-75
2022/04/27 08:35:57;;;;;;;9.97;4.00;;;11.30;99.90;;;;;;4993789;28;20182;-75
2022/04/27 08:38:23;;;;;;;7.23;3.73;;;11.30;1.00;;;;;;4992193;28;20173;-75
2022/04/27 08:40:49;;;;;;;6.53;4.00;;;11.30;1.00;;;;;;4992140;28;20178;-75
2022/04/27 08:43:15;;;;;;;9.17;4.10;;;11.30;1.00;;;;;;4993436;28;20201;-75
2022/04/27 08:45:42;;;;;;;7.80;4.47;;;11.40;1.00;;;;;;4993323;28;20563;-76
2022/04/27 08:48:10;;;;;;;5.57;4.40;;;11.40;99.90;;;;;;4993763;28;20166;-75
2022/04/27 08:50:36;;;;;;;15.23;5.27;;;11.40;59.10;;;;;;4991957;28;20185;-75
2022/04/27 08:53:02;;;;;;;8.33;4.20;;;11.50;73.90;;;;;;4993232;28;20177;-75
2022/04/27 08:55:27;;;;;;;7.93;4.67;;;11.50;1.00;;;;;;4993249;28;20209;-75
2022/04/27 08:58:08;;;;;;;7.30;4.30;;;11.50;99.90;;;;;;4993214;28;20193;-75
2022/04/27 09:00:35;;;;;;;6.80;4.10;;;11.50;99.90;;;;;;4993122;28;20657;-75
2022/04/27 09:03:25;;;;;;;7.03;4.80;;;11.60;99.90;;;;;;4991795;28;20288;-75
2022/04/27 09:05:53;;;;;;;7.57;4.37;;;11.70;96.80;;;;;;4993082;28;20259;-75
2022/04/27 09:08:19;;;;;;;8.43;4.63;;;11.80;1.00;;;;;;4993253;28;20173;-75
2022/04/27 09:10:45;;;;;;;8.70;4.37;;;11.90;1.00;;;;;;4993167;28;20170;-74
2022/04/27 09:13:11;;;;;;;7.73;4.30;;;11.90;1.00;;;;;;4992919;28;20174;-75
2022/04/27 09:15:36;;;;;;;7.40;3.77;;;12.10;1.00;;;;;;4992735;28;20671;-75
2022/04/27 09:20:59;;;;;;;7.53;3.77;;;12.10;1.00;;;;;;4993346;28;20643;-75
2022/04/27 09:23:32;;;;;;;8.40;4.23;;;12.20;1.00;;;;;;4992929;28;20193;-76
2022/04/27 09:26:17;;;;;;;11.00;4.37;;;12.30;1.00;;;;;;4991256;28;20527;-75
2022/04/27 09:28:46;;;;;;;5.60;3.80;;;12.30;99.90;;;;;;4991538;28;20170;-74
2022/04/27 09:31:35;;;;;;;8.07;4.57;;;12.40;1.00;;;;;;4992648;28;20172;-75
2022/04/27 09:36:53;;;;;;;10.80;4.53;;;12.40;1.00;;;;;;4993093;28;20257;-75
2022/04/27 09:39:25;;;;;;;6.13;3.80;;;12.50;1.00;;;;;;4992609;28;20150;-75
2022/04/27 09:41:51;;;;;;;5.33;4.10;;;12.50;99.90;;;;;;4992686;28;20197;-75
2022/04/27 09:44:34;;;;;;;8.60;4.00;;;12.60;1.00;;;;;;4992465;28;20629;-75
2022/04/27 09:47:03;;;;;;;6.27;4.10;;;12.70;99.90;;;;;;4991453;28;20189;-74
2022/04/27 09:49:29;;;;;;;5.57;3.90;;;12.80;1.00;;;;;;4992427;28;20185;-75
2022/04/27 09:51:56;;;;;;;7.33;4.67;;;12.90;99.90;;;;;;4992524;28;20256;-75
2022/04/27 09:54:34;;;;;;;8.63;4.27;;;12.90;99.90;;;;;;4991069;28;20659;-75
2022/04/27 09:57:05;;;;;;;10.10;4.73;;;12.90;99.90;;;;;;4992429;28;20161;-76
2022/04/27 09:59:36;;;;;;;10.63;5.60;;;13.00;1.00;;;;;;4992309;28;20647;-74
2022/04/27 10:02:18;;;;;;;8.83;4.50;;;13.00;99.90;;;;;;4992554;28;20190;-75
2022/04/27 10:04:45;;;;;;;9.90;4.13;;;13.00;1.00;;;;;;4992501;28;20280;-75
2022/04/27 10:07:13;;;;;;;8.67;4.97;;;13.00;99.90;;;;;;4992517;28;20169;-75
2022/04/27 10:09:39;;;;;;;9.63;4.53;;;13.10;99.90;;;;;;4992415;28;20197;-76
2022/04/27 10:12:07;;;;;;;8.40;4.40;;;13.10;66.20;;;;;;4990967;28;20586;-74
2022/04/27 10:14:33;;;;;;;6.10;4.40;;;13.10;99.90;;;;;;4991993;28;20193;-75
2022/04/27 10:16:59;;;;;;;10.27;4.27;;;13.20;99.90;;;;;;4991982;28;20181;-75
2022/04/27 10:19:25;;;;;;;7.47;4.47;;;13.20;99.90;;;;;;4992013;28;20178;-75
2022/04/27 10:21:59;;;;;;;5.57;4.43;;;13.20;99.90;;;;;;4991922;28;20209;-75
2022/04/27 10:24:43;;;;;;;6.53;3.67;;;13.20;99.90;;;;;;4992071;28;20278;-75
2022/04/27 10:27:25;;;;;;;4.73;3.73;;;13.30;99.90;;;;;;4991208;28;20230;-75
2022/04/27 10:29:57;;;;;;;7.83;4.23;;;13.40;99.90;;;;;;4990636;28;20632;-75
2022/04/27 10:32:41;;;;;;;7.73;4.30;;;13.40;99.90;;;;;;4991842;28;20635;-75
2022/04/27 10:35:17;;;;;;;9.57;5.30;;;13.60;1.00;;;;;;5047205;22;20238;-94
2022/04/27 10:37:47;;;;;;;6.13;4.17;;;13.40;99.90;;;;;;5082017;28;20219;-94
2022/04/27 10:40:40;;;;;;;7.40;4.80;;;13.40;1.00;;;;;;5087284;28;20193;-94
2022/04/27 10:43:06;;;;;;;9.30;4.87;;;13.50;1.00;;;;;;5079911;28;20293;-94
2022/04/27 10:45:43;;;;;;;5.77;4.60;;;13.60;1.00;;;;;;5100838;28;20193;-94
2022/04/27 10:48:15;;;;;;;6.97;3.83;;;13.60;1.00;;;;;;5100345;28;20225;-94
2022/04/27 10:50:54;;;;;;;8.40;4.07;;;13.70;1.00;;;;;;5100753;28;20193;-94
2022/04/27 10:53:25;;;;;;;8.93;4.30;;;13.90;86.90;;;;;;5084708;28;20166;-95
2022/04/27 10:55:58;;;;;;;8.17;4.13;;;14.90;99.90;;;;;;5093352;28;20163;-93
2022/04/27 10:58:30;;;;;;;10.13;5.33;;;14.20;99.90;;;;;;5101931;28;20170;-92
2022/04/27 11:01:01;;;;;;;6.97;4.83;;;14.00;1.00;;;;;;5097003;28;20198;-94
2022/04/27 11:03:27;;;;;;;9.20;5.10;;;14.10;1.00;;;;;;5085832;28;20205;-94
2022/04/27 11:05:56;;;;;;;7.03;4.53;;;14.20;1.00;;;;;;5083519;28;20170;-94
2022/04/27 11:08:58;;;;;;;6.50;5.30;;;14.80;1.00;;;;;;5100526;28;20174;-94
2022/04/27 11:11:26;;;;;;;9.57;4.60;;;14.00;1.00;;;;;;5081512;28;20236;-94
2022/04/27 11:14:03;;;;;;;7.03;5.27;;;14.10;1.00;;;;;;5099885;28;20170;-94
2022/04/27 11:16:29;;;;;;;7.70;5.43;;;14.10;1.00;;;;;;5081641;28;20173;-94
2022/04/27 11:18:59;;;;;;;7.63;5.20;;;14.40;1.00;;;;;;5080084;28;20260;-94
2022/04/27 11:21:28;;;;;;;9.80;5.97;;;14.20;1.00;;;;;;5081433;28;20190;-94
2022/04/27 11:23:55;;;;;;;9.83;5.47;;;14.20;1.00;;;;;;5100049;28;20180;-94
2022/04/27 11:26:21;;;;;;;8.70;5.60;;;14.30;1.00;;;;;;5081609;28;20230;-94
2022/04/27 11:28:47;;;;;;;7.50;5.53;;;14.30;1.00;;;;;;5081025;28;20198;-94
2022/04/27 11:31:13;;;;;;;7.40;5.10;;;14.60;1.00;;;;;;5082684;28;20200;-94
2022/04/27 11:33:40;;;;;;;9.57;4.90;;;14.70;1.00;;;;;;5100137;28;20175;-94
2022/04/27 11:36:07;;;;;;;11.63;5.37;;;14.70;1.00;;;;;;5080914;28;20193;-94
2022/04/27 11:38:37;;;;;;;11.17;5.33;;;14.70;1.00;;;;;;5082709;28;20261;-94
2022/04/27 11:41:12;;;;;;;10.10;5.57;;;14.70;1.00;;;;;;5080143;28;20205;-94
2022/04/27 11:43:38;;;;;;;10.67;5.43;;;14.90;1.00;;;;;;5080886;28;20209;-94
2022/04/27 11:46:04;;;;;;;9.10;4.77;;;15.00;1.00;;;;;;5080964;28;20174;-94
2022/04/27 11:48:30;;;;;;;6.83;5.43;;;15.30;1.00;;;;;;5081130;28;20177;-94
2022/04/27 11:51:00;;;;;;;10.00;5.20;;;14.80;1.00;;;;;;5087310;28;20182;-94
2022/04/27 11:53:26;;;;;;;7.80;5.07;;;15.40;1.00;;;;;;5086532;28;20170;-94
2022/04/27 11:55:53;;;;;;;12.67;5.37;;;14.90;1.00;;;;;;5093763;28;20181;-94
2022/04/27 11:58:28;;;;;;;10.27;6.40;;;14.70;1.00;;;;;;5091594;28;20592;-94
2022/04/27 12:01:00;;;;;;;11.10;5.83;;;14.90;1.00;;;;;;5087358;28;20236;-93
2022/04/27 12:03:27;;;;;;;8.70;5.90;;;14.90;1.00;;;;;;5086864;28;20194;-94
2022/04/27 12:05:54;;;;;;;9.13;6.00;;;15.30;1.00;;;;;;5088475;28;20167;-94
2022/04/27 12:08:22;;;;;;;10.93;5.83;;;15.00;1.00;;;;;;5086520;28;20177;-94
2022/04/27 12:10:49;;;;;;;7.73;5.77;;;15.10;1.00;;;;;;5087465;28;20196;-94
2022/04/27 12:13:19;;;;;;;10.73;5.87;;;15.00;1.00;;;;;;5107104;28;20277;-94
2022/04/27 12:15:54;;;;;;;8.50;5.60;;;14.90;1.00;;;;;;5083740;28;20182;-91
2022/04/27 12:18:24;;;;;;;12.47;6.00;;;15.00;1.00;;;;;;5098297;28;20170;-91
2022/04/27 12:20:55;;;;;;;10.53;5.27;;;14.90;1.00;;;;;;5079904;28;20201;-90
2022/04/27 12:23:25;;;;;;;8.53;5.03;;;15.40;1.00;;;;;;5078989;28;20197;-92
2022/04/27 12:25:55;;;;;;;10.53;5.20;;;15.20;1.00;;;;;;5079706;28;20211;-91
2022/04/27 12:28:26;;;;;;;9.67;5.40;;;15.50;1.00;;;;;;5098678;28;20174;-92
2022/04/27 12:30:56;;;;;;;10.53;6.07;;;15.30;1.00;;;;;;5080468;28;20194;-92
2022/04/27 12:33:32;;;;;;;8.73;6.30;;;15.30;1.00;;;;;;5079598;28;20184;-91
2022/04/27 12:39:04;;;;;;;8.53;5.73;;;15.50;1.00;;;;;;5097792;28;20235;-91
2022/04/27 12:41:37;;;;;;;9.33;6.00;;;15.50;1.00;;;;;;5079274;28;20194;-92
2022/04/27 12:44:07;;;;;;;11.83;6.30;;;15.60;1.00;;;;;;5079911;28;20189;-92
2022/04/27 12:46:33;;;;;;;8.67;6.03;;;15.60;1.00;;;;;;5079269;28;20174;-92
2022/04/27 12:49:05;;;;;;;13.53;5.93;;;15.50;1.00;;;;;;5080006;28;20173;-91
2022/04/27 12:51:33;;;;;;;9.07;5.83;;;15.50;1.00;;;;;;5080505;28;20205;-92
2022/04/27 12:53:59;;;;;;;13.30;6.30;;;15.50;1.00;;;;;;5079290;28;20170;-93
2022/04/27 12:56:35;;;;;;;10.83;5.43;;;15.40;99.90;;;;;;5079006;28;20178;-92
2022/04/27 12:59:03;;;;;;;9.73;6.03;;;15.40;1.00;;;;;;5080562;28;20204;-92
2022/04/27 13:01:29;;;;;;;6.97;4.87;;;15.60;1.00;;;;;;5084739;28;20194;-93
2022/04/27 13:03:55;;;;;;;7.80;5.20;;;15.70;1.00;;;;;;5084857;28;20259;-89
2022/04/27 13:06:22;;;;;;;9.33;5.87;;;15.70;1.00;;;;;;5078965;28;20175;-90
2022/04/27 13:08:51;;;;;;;10.43;5.80;;;15.90;1.00;;;;;;5078538;28;20174;-91
2022/04/27 13:14:03;;;;;;;9.13;6.20;;;16.20;1.00;;;;;;5109981;28;20177;-94
2022/04/27 13:16:28;;;;;;;9.73;5.77;;;15.90;99.90;;;;;;5092870;28;20175;-94
2022/04/27 13:18:55;;;;;;;12.10;5.93;;;15.90;99.90;;;;;;5113477;28;20167;-94
2022/04/27 13:21:21;;;;;;;9.20;6.50;;;15.90;99.90;;;;;;5117141;28;20205;-94